createdAt,value
2022-10-31T00:01:40.499Z,101200.92
2022-10-31T00:04:08.916Z,101213.10
2022-10-31T00:06:37.430Z,101201.24
2022-10-31T00:09:06.906Z,101203.14
2022-10-31T00:11:35.411Z,101208.87
2022-10-31T00:14:04.178Z,101206.73
2022-10-31T00:16:33.212Z,101195.58
2022-10-31T00:19:03.726Z,101192.77
2022-10-31T00:21:33.062Z,101186.98
2022-10-31T00:24:02.777Z,101188.55
2022-10-31T00:26:32.223Z,101183.13
2022-10-31T00:29:01.739Z,101188.70
2022-10-31T00:31:30.992Z,101183.11
2022-10-31T00:34:01.142Z,101187.96
2022-10-31T00:36:33.272Z,101185.19
2022-10-31T00:39:01.639Z,101184.80
2022-10-31T00:41:31.727Z,101185.79
2022-10-31T00:44:00.802Z,101182.28
2022-10-31T00:46:29.525Z,101179.48
2022-10-31T00:48:57.680Z,101175.45
2022-10-31T00:51:26.571Z,101174.41
2022-10-31T00:53:55.046Z,101175.64
2022-10-31T00:56:23.214Z,101177.89
2022-10-31T00:58:51.543Z,101171.63
2022-10-31T01:01:19.735Z,101168.86
2022-10-31T01:03:48.065Z,101178.27
2022-10-31T01:06:17.774Z,101171.30
2022-10-31T01:08:46.291Z,101173.58
2022-10-31T01:11:24.080Z,101175.16
2022-10-31T01:13:55.555Z,101176.56
2022-10-31T01:16:26.604Z,101177.27
2022-10-31T01:18:55.294Z,101180.06
2022-10-31T01:21:26.377Z,101176.23
2022-10-31T01:23:58.901Z,101179.88
2022-10-31T01:26:30.255Z,101175.52
2022-10-31T01:29:04.142Z,101177.45
2022-10-31T01:31:35.362Z,101177.27
2022-10-31T01:34:04.264Z,101179.21
2022-10-31T01:36:38.048Z,101176.80
2022-10-31T01:39:10.740Z,101174.38
2022-10-31T01:41:42.940Z,101179.74
2022-10-31T01:44:17.397Z,101177.27
2022-10-31T01:47:01.692Z,101177.42
2022-10-31T01:49:45.568Z,101167.69
2022-10-31T01:52:23.633Z,101170.64
2022-10-31T01:54:59.464Z,101172.39
2022-10-31T01:57:29.462Z,101165.41
2022-10-31T02:00:01.929Z,101161.41
2022-10-31T02:02:32.447Z,101161.93
2022-10-31T02:05:03.840Z,101154.98
2022-10-31T02:08:01.356Z,101152.02
2022-10-31T02:10:31.326Z,101151.14
2022-10-31T02:13:03.703Z,101151.10
2022-10-31T02:15:34.139Z,101149.84
2022-10-31T02:18:03.060Z,101146.34
2022-10-31T02:20:40.095Z,101145.13
2022-10-31T02:23:33.292Z,101147.38
2022-10-31T02:26:18.713Z,101145.60
2022-10-31T02:29:15.885Z,101145.95
2022-10-31T02:31:46.673Z,101147.16
2022-10-31T02:34:30.895Z,101153.23
2022-10-31T02:37:07.469Z,101143.85
2022-10-31T02:39:41.367Z,101139.67
2022-10-31T02:42:28.746Z,101149.55
2022-10-31T02:45:09.761Z,101151.27
2022-10-31T02:47:40.499Z,101152.43
2022-10-31T02:50:12.918Z,101156.94
2022-10-31T02:52:41.712Z,101156.56
2022-10-31T02:55:26.831Z,101160.55
2022-10-31T02:58:01.524Z,101158.27
2022-10-31T03:00:34.759Z,101152.89
2022-10-31T03:03:17.821Z,101151.85
2022-10-31T03:06:13.174Z,101149.96
2022-10-31T03:09:26.344Z,101148.58
2022-10-31T03:12:31.829Z,101148.23
2022-10-31T03:15:21.583Z,101144.77
2022-10-31T03:18:18.461Z,101145.45
2022-10-31T03:21:02.422Z,101147.91
2022-10-31T03:23:32.603Z,101147.39
2022-10-31T03:26:05.323Z,101146.38
2022-10-31T03:28:44.680Z,101149.67
2022-10-31T03:31:18.159Z,101152.09
2022-10-31T03:33:47.889Z,101154.34
2022-10-31T03:36:17.881Z,101149.97
2022-10-31T03:38:48.899Z,101141.42
2022-10-31T03:41:23.514Z,101140.73
2022-10-31T03:44:02.379Z,101141.45
2022-10-31T03:46:31.247Z,101142.15
2022-10-31T03:49:01.072Z,101140.59
2022-10-31T03:51:41.718Z,101133.45
2022-10-31T03:54:22.394Z,101132.41
2022-10-31T03:57:02.593Z,101127.72
2022-10-31T03:59:39.865Z,101113.28
2022-10-31T04:02:13.032Z,101121.94
2022-10-31T04:04:41.898Z,101110.30
2022-10-31T04:07:12.403Z,101101.61
2022-10-31T04:09:46.044Z,101095.48
2022-10-31T04:12:17.864Z,101094.95
2022-10-31T04:14:49.099Z,101098.27
2022-10-31T04:17:21.282Z,101107.83
2022-10-31T04:19:49.973Z,101108.67
2022-10-31T04:22:18.191Z,101098.73
2022-10-31T04:24:46.361Z,101098.02
2022-10-31T04:27:14.477Z,101101.84
2022-10-31T04:29:45.481Z,101102.52
2022-10-31T04:32:16.432Z,101092.45
2022-10-31T04:34:44.561Z,101078.54
2022-10-31T04:37:12.876Z,101078.88
2022-10-31T04:39:40.994Z,101068.46
2022-10-31T04:42:09.158Z,101073.86
2022-10-31T04:44:37.387Z,101074.02
2022-10-31T04:47:06.029Z,101078.01
2022-10-31T04:49:34.249Z,101074.52
2022-10-31T04:52:02.726Z,101068.41
2022-10-31T04:54:31.351Z,101066.67
2022-10-31T04:56:59.614Z,101065.81
2022-10-31T04:59:28.039Z,101061.98
2022-10-31T05:01:56.778Z,101063.91
2022-10-31T05:04:25.041Z,101062.02
2022-10-31T05:06:53.302Z,101062.35
2022-10-31T05:09:21.416Z,101057.48
2022-10-31T05:11:49.504Z,101054.52
2022-10-31T05:14:17.916Z,101052.11
2022-10-31T05:16:46.707Z,101050.73
2022-10-31T05:19:15.428Z,101049.70
2022-10-31T05:21:44.239Z,101050.08
2022-10-31T05:24:15.905Z,101049.23
2022-10-31T05:26:44.274Z,101048.52
2022-10-31T05:29:12.618Z,101047.09
2022-10-31T05:31:41.539Z,101039.56
2022-10-31T05:34:12.837Z,101040.04
2022-10-31T05:36:41.248Z,101039.65
2022-10-31T05:39:09.903Z,101037.52
2022-10-31T05:41:38.540Z,101030.71
2022-10-31T05:44:06.922Z,101034.99
2022-10-31T05:49:03.685Z,101036.46
2022-10-31T05:51:31.810Z,101042.52
2022-10-31T05:54:03.270Z,101039.55
2022-10-31T05:56:39.673Z,101034.32
2022-10-31T05:59:08.000Z,101029.42
2022-10-31T06:01:36.154Z,101030.80
2022-10-31T06:04:04.975Z,101027.33
2022-10-31T06:06:34.605Z,101025.42
2022-10-31T06:09:03.396Z,101025.08
2022-10-31T06:11:31.885Z,101022.97
2022-10-31T06:14:03.961Z,101025.71
2022-10-31T06:16:32.993Z,101024.98
2022-10-31T06:19:02.036Z,101024.77
2022-10-31T06:21:30.982Z,101024.95
2022-10-31T06:24:00.055Z,101017.45
2022-10-31T06:26:29.093Z,101014.48
2022-10-31T06:31:39.358Z,101000.19
2022-10-31T06:34:07.740Z,100996.88
2022-10-31T06:36:36.182Z,100993.92
2022-10-31T06:39:04.493Z,100986.62
2022-10-31T06:41:32.461Z,100989.04
2022-10-31T06:44:04.979Z,100986.23
2022-10-31T06:46:36.487Z,100984.20
2022-10-31T06:49:04.710Z,100984.56
2022-10-31T06:51:33.022Z,100983.71
2022-10-31T06:54:04.172Z,100984.08
2022-10-31T06:56:32.833Z,100977.52
2022-10-31T06:59:01.569Z,100973.54
2022-10-31T07:01:30.661Z,100969.75
2022-10-31T07:03:59.028Z,100964.88
2022-10-31T07:06:28.394Z,100960.88
2022-10-31T07:08:56.815Z,100953.58
2022-10-31T07:11:25.593Z,100950.80
2022-10-31T07:13:54.083Z,100940.55
2022-10-31T07:16:22.325Z,100933.90
2022-10-31T07:18:50.488Z,100926.94
2022-10-31T07:21:18.710Z,100932.83
2022-10-31T07:23:50.799Z,100928.66
2022-10-31T07:26:19.116Z,100923.11
2022-10-31T07:28:49.493Z,100917.56
2022-10-31T07:31:17.621Z,100917.38
2022-10-31T07:33:46.334Z,100917.55
2022-10-31T07:36:14.738Z,100917.21
2022-10-31T07:38:43.073Z,100922.59
2022-10-31T07:41:14.284Z,100923.45
2022-10-31T07:43:43.108Z,100928.30
2022-10-31T07:46:13.329Z,100931.36
2022-10-31T07:48:41.952Z,100935.45
2022-10-31T07:51:10.739Z,100945.84
2022-10-31T07:53:39.645Z,100949.65
2022-10-31T07:56:08.530Z,100949.81
2022-10-31T07:58:36.900Z,100950.33
2022-10-31T08:01:05.504Z,100943.02
2022-10-31T08:03:34.282Z,100942.34
2022-10-31T08:06:02.500Z,100946.00
2022-10-31T08:08:33.379Z,100946.85
2022-10-31T08:11:05.054Z,100946.49
2022-10-31T08:13:33.972Z,100945.27
2022-10-31T08:16:06.416Z,100948.40
2022-10-31T08:18:34.792Z,100946.33
2022-10-31T08:21:03.712Z,100957.77
2022-10-31T08:23:32.062Z,100966.63
2022-10-31T08:26:01.270Z,100960.03
2022-10-31T08:28:29.940Z,100953.42
2022-10-31T08:31:00.329Z,100954.63
2022-10-31T08:33:28.905Z,100969.52
2022-10-31T08:35:57.698Z,100972.10
2022-10-31T08:38:26.628Z,100967.39
2022-10-31T08:40:55.066Z,100963.39
2022-10-31T08:43:23.398Z,100951.91
2022-10-31T08:45:52.498Z,100950.52
2022-10-31T08:48:21.300Z,100951.20
2022-10-31T08:50:49.880Z,100962.11
2022-10-31T08:53:20.941Z,100962.08
2022-10-31T08:55:49.606Z,100962.06
2022-10-31T08:58:20.088Z,100959.29
2022-10-31T09:00:50.837Z,100962.05
2022-10-31T09:03:24.376Z,100964.83
2022-10-31T09:05:56.506Z,100936.91
2022-10-31T09:08:25.209Z,100891.13
2022-10-31T09:10:54.217Z,100881.76
2022-10-31T09:13:27.866Z,100862.31
2022-10-31T09:15:57.973Z,100852.41
2022-10-31T09:18:29.976Z,100850.84
2022-10-31T09:21:00.996Z,100846.13
2022-10-31T09:23:30.959Z,100845.58
2022-10-31T09:26:03.082Z,100839.13
2022-10-31T09:28:31.891Z,100834.92
2022-10-31T09:31:00.805Z,100824.83
2022-10-31T09:33:29.232Z,100822.20
2022-10-31T09:36:00.485Z,100823.38
2022-10-31T09:38:28.797Z,100822.81
2022-10-31T09:41:30.637Z,100827.30
2022-10-31T09:44:20.405Z,100836.30
2022-10-31T09:47:08.614Z,100830.02
2022-10-31T09:49:45.884Z,100818.73
2022-10-31T09:52:28.815Z,100785.10
2022-10-31T09:55:24.914Z,100746.77
2022-10-31T09:57:53.419Z,100734.27
2022-10-31T10:00:24.455Z,100741.91
2022-10-31T10:03:00.066Z,100770.16
2022-10-31T10:06:05.241Z,100807.27
2022-10-31T10:08:35.764Z,100832.75
2022-10-31T10:11:04.514Z,100830.32
2022-10-31T10:13:39.405Z,100802.23
2022-10-31T10:16:55.551Z,100759.55
2022-10-31T10:19:41.699Z,100711.84
2022-10-31T10:22:19.270Z,100705.56
2022-10-31T10:25:11.937Z,100722.52
2022-10-31T10:28:04.862Z,100723.35
2022-10-31T10:30:43.812Z,100718.48
2022-10-31T10:33:22.069Z,100747.77
2022-10-31T10:36:13.507Z,100788.68
2022-10-31T10:38:54.369Z,100814.69
2022-10-31T10:41:31.840Z,100831.69
2022-10-31T10:44:02.843Z,100834.64
2022-10-31T10:47:09.072Z,100831.69
2022-10-31T10:49:55.478Z,100818.86
2022-10-31T10:52:44.586Z,100807.23
2022-10-31T10:56:02.473Z,100806.89
2022-10-31T10:58:31.154Z,100819.39
2022-10-31T11:03:42.588Z,100819.73
2022-10-31T11:06:28.044Z,100807.92
2022-10-31T11:08:57.090Z,100817.48
2022-10-31T11:11:34.561Z,100815.91
2022-10-31T11:14:07.808Z,100816.79
2022-10-31T11:16:42.601Z,100818.19
2022-10-31T11:19:31.813Z,100808.64
2022-10-31T11:22:17.773Z,100779.17
2022-10-31T11:24:47.268Z,100777.27
2022-10-31T11:27:27.344Z,100789.05
2022-10-31T11:30:07.892Z,100783.53
2022-10-31T11:32:37.028Z,100785.41
2022-10-31T11:35:14.452Z,100783.14
2022-10-31T11:37:46.273Z,100770.83
2022-10-31T11:40:33.587Z,100746.55
2022-10-31T11:43:02.137Z,100759.89
2022-10-31T11:45:33.526Z,100771.67
2022-10-31T11:48:04.116Z,100781.73
2022-10-31T11:50:42.834Z,100769.41
2022-10-31T11:53:23.126Z,100756.92
2022-10-31T11:56:14.725Z,100751.56
2022-10-31T11:58:44.426Z,100742.91
2022-10-31T12:01:29.388Z,100742.58
2022-10-31T12:04:14.814Z,100723.67
2022-10-31T12:06:45.867Z,100710.85
2022-10-31T12:09:27.847Z,100706.88
2022-10-31T12:12:15.896Z,100708.08
2022-10-31T12:15:05.154Z,100703.92
2022-10-31T12:17:51.869Z,100700.61
2022-10-31T12:20:44.664Z,100681.52
2022-10-31T12:23:34.382Z,100674.24
2022-10-31T12:26:40.296Z,100689.33
2022-10-31T12:29:14.049Z,100683.09
2022-10-31T12:31:42.633Z,100668.70
2022-10-31T12:34:32.739Z,100650.67
2022-10-31T12:37:20.275Z,100646.17
2022-10-31T12:40:03.305Z,100655.70
2022-10-31T12:43:04.394Z,100654.32
2022-10-31T12:45:44.311Z,100656.25
2022-10-31T12:48:46.874Z,100652.79
2022-10-31T12:51:31.738Z,100661.45
2022-10-31T12:54:25.675Z,100664.42
2022-10-31T12:57:10.226Z,100651.99
2022-10-31T12:59:47.924Z,100642.83
2022-10-31T13:02:55.073Z,100632.80
2022-10-31T13:05:33.192Z,100638.57
2022-10-31T13:08:10.504Z,100632.00
2022-10-31T13:10:42.289Z,100629.09
2022-10-31T13:13:34.245Z,100625.14
2022-10-31T13:16:09.911Z,100624.15
2022-10-31T13:18:50.615Z,100608.58
2022-10-31T13:21:48.075Z,100604.27
2022-10-31T13:24:22.732Z,100611.75
2022-10-31T13:26:57.601Z,100614.02
2022-10-31T13:29:36.403Z,100608.66
2022-10-31T13:32:09.208Z,100614.23
2022-10-31T13:34:43.670Z,100608.67
2022-10-31T13:37:32.078Z,100614.75
2022-10-31T13:40:24.817Z,100608.87
2022-10-31T13:43:08.619Z,100609.23
2022-10-31T13:45:37.558Z,100603.17
2022-10-31T13:48:18.979Z,100607.70
2022-10-31T13:51:04.548Z,100615.19
2022-10-31T13:53:48.421Z,100593.33
2022-10-31T13:56:19.030Z,100586.05
2022-10-31T13:59:02.662Z,100586.58
2022-10-31T14:01:32.217Z,100590.39
2022-10-31T14:04:25.531Z,100589.36
2022-10-31T14:07:10.194Z,100590.93
2022-10-31T14:09:50.305Z,100591.28
2022-10-31T14:12:27.777Z,100586.59
2022-10-31T14:15:02.834Z,100589.22
2022-10-31T14:17:37.515Z,100584.70
2022-10-31T14:20:34.773Z,100585.26
2022-10-31T14:23:38.394Z,100577.48
2022-10-31T14:26:28.656Z,100589.65
2022-10-31T14:29:02.650Z,100585.84
2022-10-31T14:31:42.020Z,100583.75
2022-10-31T14:34:36.564Z,100583.77
2022-10-31T14:37:28.478Z,100576.66
2022-10-31T14:40:08.962Z,100560.88
2022-10-31T14:42:46.186Z,100557.75
2022-10-31T14:45:20.758Z,100546.98
2022-10-31T14:48:06.760Z,100551.50
2022-10-31T14:50:51.409Z,100553.23
2022-10-31T14:53:35.972Z,100556.89
2022-10-31T14:56:07.077Z,100562.98
2022-10-31T14:58:50.374Z,100560.89
2022-10-31T15:01:27.470Z,100562.80
2022-10-31T15:04:22.402Z,100561.77
2022-10-31T15:06:53.388Z,100557.06
2022-10-31T15:09:24.588Z,100560.71
2022-10-31T15:11:52.849Z,100554.30
2022-10-31T15:14:27.737Z,100555.84
2022-10-31T15:16:59.043Z,100566.10
2022-10-31T15:19:30.806Z,100558.12
2022-10-31T15:22:03.589Z,100560.20
2022-10-31T15:24:40.948Z,100553.80
2022-10-31T15:27:15.728Z,100551.19
2022-10-31T15:29:56.154Z,100549.11
2022-10-31T15:32:28.886Z,100554.67
2022-10-31T15:34:58.869Z,100560.21
2022-10-31T15:37:31.583Z,100559.52
2022-10-31T15:40:10.315Z,100554.50
2022-10-31T15:42:43.002Z,100561.97
2022-10-31T15:45:14.244Z,100565.95
2022-10-31T15:47:54.069Z,100574.30
2022-10-31T15:50:34.766Z,100559.54
2022-10-31T15:53:04.327Z,100553.45
2022-10-31T15:55:40.169Z,100558.50
2022-10-31T15:58:18.351Z,100563.20
2022-10-31T16:00:47.778Z,100560.09
2022-10-31T16:03:27.678Z,100558.00
2022-10-31T16:06:05.613Z,100548.80
2022-10-31T16:08:35.401Z,100550.54
2022-10-31T16:11:10.106Z,100556.96
2022-10-31T16:13:55.274Z,100548.64
2022-10-31T16:16:39.971Z,100547.60
2022-10-31T16:19:37.113Z,100548.81
2022-10-31T16:22:11.926Z,100558.37
2022-10-31T16:25:12.483Z,100562.54
2022-10-31T16:27:41.686Z,100557.51
2022-10-31T16:30:48.236Z,100560.30
2022-10-31T16:33:38.261Z,100574.02
2022-10-31T16:36:41.050Z,100573.15
2022-10-31T16:39:10.518Z,100593.30
2022-10-31T16:41:44.737Z,100597.12
2022-10-31T16:44:21.675Z,100602.69
2022-10-31T16:46:50.307Z,100615.72
2022-10-31T16:49:20.972Z,100621.98
2022-10-31T16:51:49.723Z,100624.59
2022-10-31T16:54:18.405Z,100635.55
2022-10-31T16:56:47.082Z,100634.67
2022-10-31T16:59:16.518Z,100637.81
2022-10-31T17:01:49.351Z,100640.95
2022-10-31T17:04:18.133Z,100642.68
2022-10-31T17:06:47.011Z,100668.06
2022-10-31T17:09:15.878Z,100680.05
2022-10-31T17:11:50.070Z,100680.05
2022-10-31T17:14:20.438Z,100675.53
2022-10-31T17:16:49.171Z,100679.86
2022-10-31T17:19:18.167Z,100688.69
2022-10-31T17:21:46.842Z,100694.05
2022-10-31T17:24:16.926Z,100714.34
2022-10-31T17:26:45.554Z,100730.29
2022-10-31T17:29:14.295Z,100730.27
2022-10-31T17:31:44.825Z,100737.71
2022-10-31T17:34:13.742Z,100733.30
2022-10-31T17:36:42.439Z,100735.00
2022-10-31T17:39:12.164Z,100741.04
2022-10-31T17:41:40.294Z,100744.09
2022-10-31T17:44:11.290Z,100741.07
2022-10-31T17:46:40.235Z,100739.81
2022-10-31T17:49:09.976Z,100735.26
2022-10-31T17:51:38.666Z,100722.90
2022-10-31T17:54:09.771Z,100716.44
2022-10-31T17:56:38.235Z,100724.03
2022-10-31T18:01:40.340Z,100727.11
2022-10-31T18:04:08.962Z,100726.75
2022-10-31T18:06:37.305Z,100729.67
2022-10-31T18:09:07.648Z,100735.38
2022-10-31T18:11:36.245Z,100741.77
2022-10-31T18:14:05.291Z,100745.05
2022-10-31T18:16:34.094Z,100749.02
2022-10-31T18:19:02.995Z,100746.06
2022-10-31T18:21:34.838Z,100747.27
2022-10-31T18:24:03.877Z,100761.67
2022-10-31T18:26:32.442Z,100763.73
2022-10-31T18:29:01.623Z,100761.80
2022-10-31T18:31:31.237Z,100765.44
2022-10-31T18:33:59.769Z,100768.55
2022-10-31T18:36:28.466Z,100767.16
2022-10-31T18:38:57.064Z,100771.86
2022-10-31T18:41:25.186Z,100778.95
2022-10-31T18:43:57.117Z,100786.58
2022-10-31T18:46:26.218Z,100798.53
2022-10-31T18:48:55.038Z,100796.46
2022-10-31T18:51:23.905Z,100799.23
2022-10-31T18:53:58.046Z,100799.26
2022-10-31T18:56:28.867Z,100799.08
2022-10-31T18:58:57.472Z,100813.28
2022-10-31T19:01:26.468Z,100818.48
2022-10-31T19:03:57.233Z,100821.06
2022-10-31T19:06:27.829Z,100824.02
2022-10-31T19:09:01.781Z,100816.91
2022-10-31T19:11:32.980Z,100817.41
2022-10-31T19:14:01.930Z,100814.63
2022-10-31T19:16:30.960Z,100811.84
2022-10-31T19:19:01.307Z,100822.77
2022-10-31T19:21:32.139Z,100835.93
2022-10-31T19:24:01.822Z,100845.11
2022-10-31T19:26:30.535Z,100859.14
2022-10-31T19:28:59.238Z,100857.58
2022-10-31T19:31:27.800Z,100855.45
2022-10-31T19:33:56.664Z,100862.00
2022-10-31T19:36:25.403Z,100867.01
2022-10-31T19:38:55.018Z,100865.24
2022-10-31T19:41:29.814Z,100858.64
2022-10-31T19:44:01.442Z,100854.13
2022-10-31T19:49:18.614Z,100857.86
2022-10-31T19:51:47.349Z,100859.21
2022-10-31T19:54:16.546Z,100864.94
2022-10-31T19:56:45.933Z,100869.26
2022-10-31T19:59:14.691Z,100873.21
2022-10-31T20:01:43.482Z,100867.77
2022-10-31T20:04:12.123Z,100871.73
2022-10-31T20:06:42.440Z,100868.58
2022-10-31T20:09:16.158Z,100862.46
2022-10-31T20:11:46.475Z,100867.47
2022-10-31T20:14:18.544Z,100874.88
2022-10-31T20:16:47.078Z,100879.50
2022-10-31T20:19:15.572Z,100883.09
2022-10-31T20:21:43.886Z,100885.16
2022-10-31T20:24:12.634Z,100875.64
2022-10-31T20:26:42.512Z,100871.32
2022-10-31T20:29:18.769Z,100869.23
2022-10-31T20:31:48.740Z,100882.07
2022-10-31T20:34:16.922Z,100893.66
2022-10-31T20:36:45.203Z,100891.96
2022-10-31T20:39:13.780Z,100890.73
2022-10-31T20:41:42.201Z,100897.67
2022-10-31T20:44:11.298Z,100893.86
2022-10-31T20:46:40.377Z,100899.05
2022-10-31T20:49:08.958Z,100895.05
2022-10-31T20:51:37.546Z,100898.84
2022-10-31T20:54:07.693Z,100904.69
2022-10-31T20:56:36.019Z,100891.81
2022-10-31T20:59:05.475Z,100883.59
2022-10-31T21:01:37.834Z,100887.89
2022-10-31T21:04:09.596Z,100896.16
2022-10-31T21:06:38.315Z,100893.19
2022-10-31T21:09:07.051Z,100891.06
2022-10-31T21:11:35.838Z,100892.77
2022-10-31T21:14:04.453Z,100896.52
2022-10-31T21:16:36.836Z,100902.71
2022-10-31T21:19:06.825Z,100899.05
2022-10-31T21:21:37.743Z,100900.44
2022-10-31T21:24:13.400Z,100894.17
2022-10-31T21:26:44.561Z,100890.38
2022-10-31T21:29:15.077Z,100884.66
2022-10-31T21:31:44.261Z,100882.96
2022-10-31T21:34:13.048Z,100887.80
2022-10-31T21:36:41.750Z,100889.38
2022-10-31T21:39:11.305Z,100886.80
2022-10-31T21:41:40.031Z,100880.06
2022-10-31T21:44:08.654Z,100873.33
2022-10-31T21:46:39.413Z,100866.93
2022-10-31T21:49:07.678Z,100861.91
2022-10-31T21:51:38.036Z,100865.94
2022-10-31T21:54:25.129Z,100878.14
2022-10-31T21:56:53.680Z,100879.42
2022-10-31T21:59:22.278Z,100879.86
2022-10-31T22:01:51.200Z,100875.98
2022-10-31T22:04:20.037Z,100876.87
2022-10-31T22:06:48.984Z,100870.30
2022-10-31T22:09:18.144Z,100869.22
2022-10-31T22:11:47.141Z,100862.77
2022-10-31T22:14:17.190Z,100864.17
2022-10-31T22:16:46.175Z,100866.79
2022-10-31T22:19:15.734Z,100870.10
2022-10-31T22:21:49.835Z,100872.75
2022-10-31T22:24:19.636Z,100869.11
2022-10-31T22:26:48.107Z,100875.19
2022-10-31T22:29:18.855Z,100889.02
2022-10-31T22:31:55.271Z,100895.10
2022-10-31T22:34:27.606Z,100900.14
2022-10-31T22:36:57.206Z,100897.17
2022-10-31T22:39:25.637Z,100896.30
2022-10-31T22:41:53.771Z,100894.73
2022-10-31T22:44:21.987Z,100892.27
2022-10-31T22:46:50.694Z,100890.98
2022-10-31T22:49:19.213Z,100890.40
2022-10-31T22:51:47.443Z,100891.67
2022-10-31T22:54:18.384Z,100895.25
2022-10-31T22:56:47.478Z,100897.26
2022-10-31T22:59:17.816Z,100899.80
2022-10-31T23:01:46.849Z,100904.76
2022-10-31T23:04:17.016Z,100904.99
2022-10-31T23:06:45.597Z,100899.91
2022-10-31T23:09:16.912Z,100901.90
2022-10-31T23:11:45.742Z,100901.32
2022-10-31T23:14:21.493Z,100900.91
2022-10-31T23:16:55.617Z,100896.36
2022-10-31T23:19:31.835Z,100889.05
2022-10-31T23:22:01.615Z,100894.17
2022-10-31T23:24:33.455Z,100895.98
2022-10-31T23:27:07.891Z,100904.02
2022-10-31T23:29:48.461Z,100901.52
2022-10-31T23:32:24.474Z,100900.25
2022-10-31T23:34:56.240Z,100895.52
2022-10-31T23:37:27.034Z,100891.98
2022-10-31T23:39:55.705Z,100886.70
2022-10-31T23:42:25.303Z,100882.30
2022-10-31T23:44:53.846Z,100880.38
2022-10-31T23:47:22.989Z,100883.83
2022-10-31T23:49:51.804Z,100885.34
2022-10-31T23:52:20.518Z,100885.64
2022-10-31T23:54:49.364Z,100881.98
2022-10-31T23:57:19.040Z,100875.67
2022-10-31T23:59:48.836Z,100885.80
